x

Bay Of Campeche - 214 Nm Ne Of Veracruz, Mx (42055) Wave Buoy

4:50pm - Thu 23rd Feb 2017 All times are UTC.

  • Sig Wave height 2.3ft
  • Swell Direction
  • Peak Period 6s
  • Average Period 5s
  • Wind
    7mph
  • Sea Temp 78°f
  • Air Temp 77°f
  • Sea Pressure 1010.2mb

More Historic Weather Station data

Upgrade to MSW Pro to gain access to the past 30 days of data for over 8000 Wavebouys and Weather Stations around the globe.

Join Pro

Comparision Forecast

View Surf forecast
   
Thu 02/23 4:50pm 2.5ft 6s 5s 7
mph
1010.2mb 78f 77f
3:50pm 2ft 5s 4s 4
mph
1010.3mb 77f 76f
2:50pm 2.5ft 5s 4s 7
mph
1009.9mb 77f 75f
1:50pm 2.5ft 5s 5s 4 7 mph 1009.6mb 77f 75f
12:50pm 2.5ft 6s 5s 4 7 mph 1009.1mb 77f 74f
11:50am 2.5ft 6s 5s 7 9 mph 1008.8mb 77f 75f
10:50am 2.5ft 6s 5s 7 9 mph 1008.8mb 77f 75f
Wed 02/22 4:50pm 3.5ft 6s 5s 13 18 mph 1014.7mb 77f 77f
3:50pm 3.5ft 6s 5s 13
mph
1015mb 77f 77f
2:50pm 3.5ft 5s 4s 11 13 mph 1014.7mb 76f 76f
1:50pm 3.5ft 6s 4s 13 16 mph 1014.1mb 76f 76f
12:50pm 3.5ft 6s 4s 16 18 mph 1013.8mb 76f 75f
10:50am 3.5ft 6s 4s 16 20 mph 1013.1mb 77f 74f
9:50am 3.5ft 6s 5s 16 18 mph 1013mb 77f 75f
8:50am 3.5ft 6s 5s 16 18 mph 1013.1mb 77f 75f
7:50am 3.5ft 6s 5s 13 16 mph 1013.5mb 77f 75f
6:50am 3.5ft 7s 5s 11 16 mph 1014.4mb 77f 75f
5:50am 3.5ft 7s 5s 11 13 mph 1015.3mb 77f 75f
4:50am 4ft 7s 5s 11 13 mph 1016mb 77f 75f
3:50am 4ft 7s 5s 11 13 mph 1016.2mb 77f 76f
2:50am 4ft 8s 5s 13 16 mph 1016mb 77f 76f
1:50am 4ft 7s 5s 13 18 mph 1015.6mb 77f 76f
12:50am 4ft 7s 5s 13 18 mph 1015.4mb 78f 75f
Tue 02/21 11:50pm 4.5ft 8s 5s 16 18 mph 1015.2mb 78f 76f
10:50pm 4.5ft 7s 5s 13 18 mph 1015.1mb 78f 76f
9:50pm 4.5ft 7s 5s 13 18 mph 1015.2mb 78f 76f
8:50pm 5ft 7s 6s 13 16 mph 1015.7mb 77f 75f
7:50pm 5ft 8s 6s 11 13 mph 1016.7mb 77f 75f
6:50pm 5.5ft 7s 6s 13 16 mph 1017.4mb 77f 76f
5:50pm 6ft 8s 6s 11 13 mph 1018.2mb 77f 76f
4:50pm 6.5ft 8s 6s 11 13 mph 1018.6mb 77f 75f
3:50pm 7ft 8s 6s 16 20 mph 1018.2mb 77f 75f
2:50pm 7.5ft 8s 6s 18 22 mph 1018mb 77f 75f
1:50pm 8ft 8s 6s 20 25 mph 1017.6mb 77f 72f
12:50pm 8.5ft 8s 6s 22 25 mph 1016.7mb 77f 73f
11:50am 9ft 8s 6s 27 31 mph 1016mb 77f 74f
10:50am 8ft 8s 6s 29 34 mph 1014.9mb 77f 75f
9:50am 9ft 7s 6s 22 29 mph 1014.8mb 77f 75f
8:50am 7.5ft 7s 6s 27 29 mph 1014mb 77f 75f
7:50am 6ft 7s 5s 25 29 mph 1014.1mb 77f 76f
6:50am 4.5ft 7s 5s 25 31 mph 1013.9mb 77f 76f
5:50am 4.5ft 7s 6s 22 27 mph 1013.8mb 78f 75f
4:50am 4.5ft 7s 6s 9 11 mph 1014.4mb 78f 78f
3:50am 5ft 7s 6s 9 11 mph 1013.9mb 78f 78f
2:50am 5ft 7s 6s 7 9 mph 1013.7mb 78f 78f
1:50am 4.5ft 6s 5s 7
mph
1013mb 78f 78f
12:50am 4.5ft 7s 5s 4
mph
1012.2mb 78f 78f
Mon 02/20 11:50pm 5ft 7s 5s 4 7 mph 1011.7mb 78f 78f
10:50pm 4.5ft 7s 5s 7 9 mph 1011mb 78f 78f
9:50pm 5ft 6s 5s 13
mph
1010.2mb 78f 78f
8:50pm 5ft 7s 5s 13 18 mph 1010.5mb 78f 78f
7:50pm 5ft 6s 5s 18 20 mph 1010.7mb 78f 78f
6:50pm 4.5ft 6s 5s 18 20 mph 1011mb 78f 78f
5:50pm 4.5ft 6s 4s 20 22 mph 1011.5mb 78f 79f
4:50pm 4.5ft 6s 4s 20 25 mph 1011.9mb 78f 79f
3:50pm 4ft 6s 4s 20 27 mph 1012.1mb 78f 79f
2:50pm 4.5ft 6s 4s 20 25 mph 1011.2mb 78f 79f
1:50pm 4ft 6s 5s 20 22 mph 1010.6mb 78f 80f
12:50pm 4.5ft 6s 5s 20 22 mph 1009.2mb 78f 79f
11:50am 4.5ft 6s 5s 20 22 mph 1008.4mb 78f 78f
10:50am 5ft 6s 5s 18 22 mph 1009mb 78f 78f
9:50am 5ft 6s 5s 25 29 mph 1008.4mb 78f 78f
8:50am 5ft 6s 5s 22 25 mph 1008.8mb 78f 78f
7:50am 5ft 6s 5s 22 27 mph 1009.4mb 77f 77f
6:50am 4.5ft 6s 5s 20 25 mph 1010.5mb 77f 77f
5:50am 4ft 6s 4s 20 25 mph 1011.2mb 77f 77f
4:50am 4ft 6s 4s 18 20 mph 1011.6mb 77f 77f
3:50am 4ft 6s 5s 18 20 mph 1011.4mb 77f 77f
2:50am 3.5ft 6s 4s 16 20 mph 1010.9mb 77f 77f
1:50am 3.5ft 5s 4s 18 20 mph 1010.3mb 77f 77f
12:50am 3.5ft 6s 4s 16 18 mph 1009.7mb 78f 78f
Sun 02/19 11:50pm 3.5ft 5s 4s 16 18 mph 1009.3mb 78f 78f
10:50pm 3.5ft 5s 4s 16 18 mph 1009.2mb 78f 78f
9:50pm 3.5ft 5s 4s 16 18 mph 1009.2mb 78f 78f
8:50pm 3.5ft 5s 4s 16 20 mph 1009.4mb 78f 78f
7:50pm 3.5ft 5s 4s 16 18 mph 1009.8mb 78f 78f
6:50pm 3.5ft 5s 4s 16 20 mph 1010.5mb 78f 78f
5:50pm 3ft 5s 4s 18 20 mph 1011mb 77f 79f